Airfield :
LOGIN :

Register | Disclaimer

   EN    FR    IT 

 










Legend :    VFR   Marginal VFR   IFR   Intensive IFR   Very Intensive IFR
Visi :
Ceiling :
>= 8 km
>= 3000ft
5 to 8 km
1000 to 3000 ft
1500m to 5 km
500 to 1000 ft
800 to 1500m
200 to 500 ft
< 800m
< 200 ft
Symbols :   Thunderstorms  Fog  Heavy snow  Heavy precipitations  Wind > 20 kt
SIGMETs :     Misc.  Thunderstorms  Icing  Turbulence  Mountain Waves  Volcanic Ashes







- Airport Elevation : 42 ft
- IATA code : LMO


EGQS - Lossiemouth

CURRENT METAR :
  • 200750Z 18006KT 9999 SCT047 BKN250 09/06 Q1022 BLU NOSIG

EXPIRED METARs :
  • 200650Z 19004KT 9999 BKN041 BKN250 08/05 Q1022 BLU NOSIG
  • 200554Z 21007KT 9999 BKN041 08/06 Q1021 BLU

TAF TAF EGQS
Valid from the 20 at 09:00 until the 21 at 03:00 UTC


200733Z 2009/2103 19010KT 9999 BKN040
PROB30
TEMPO 2009/2012 SCT018
TEMPO 2012/2103 24020G30KT
PROB30
TEMPO 2021/2103 SCT022
No reported NOTAMs for that airfield.



MET'MAP, your aeronautical weather chart ! - Copyright ORBIFLY December 2007 - Disclaimer

ORBIFLY MET'MAP TEAM :

Programming & Development : Alexandra Zaïnal
Concept & Development : Baudouin d'Aumeries
Co-Development & Prog : Marc-Olivier Méhu
Technical & hardware support : Manuel Goepfert

Contact : metmap@orbifly.com




SOURCES & CREDITS :

   NOAA